createdAt,value
2022-10-02T00:00:04.788Z,8.15
2022-10-02T00:02:47.786Z,8.90
2022-10-02T00:05:39.425Z,9.40
2022-10-02T00:08:20.778Z,12.55
2022-10-02T00:11:06.486Z,9.43
2022-10-02T00:13:51.814Z,9.40
2022-10-02T00:16:58.079Z,12.48
2022-10-02T00:19:25.567Z,7.70
2022-10-02T00:22:20.578Z,7.97
2022-10-02T00:25:06.007Z,10.15
2022-10-02T00:28:12.426Z,9.15
2022-10-02T00:31:24.290Z,8.82
2022-10-02T00:34:33.634Z,8.68
2022-10-02T00:37:35.152Z,10.57
2022-10-02T00:40:23.791Z,9.07
2022-10-02T00:43:16.428Z,8.30
2022-10-02T00:46:17.004Z,7.78
2022-10-02T00:49:20.996Z,7.88
2022-10-02T00:52:10.927Z,7.45
2022-10-02T00:55:11.950Z,8.68
2022-10-02T00:57:51.872Z,9.98
2022-10-02T01:00:21.140Z,9.07
2022-10-02T01:03:18.509Z,7.60
2022-10-02T01:05:45.601Z,9.55
2022-10-02T01:08:14.101Z,10.63
2022-10-02T01:10:41.613Z,8.90
2022-10-02T01:13:08.812Z,9.73
2022-10-02T01:15:52.925Z,10.07
2022-10-02T01:18:19.906Z,11.57
2022-10-02T01:20:53.647Z,9.68
2022-10-02T01:23:45.018Z,9.23
2022-10-02T01:26:12.128Z,7.97
2022-10-02T01:28:39.239Z,11.98
2022-10-02T01:31:14.778Z,8.48
2022-10-02T01:33:43.659Z,8.70
2022-10-02T01:36:12.958Z,11.82
2022-10-02T01:38:42.071Z,8.68
2022-10-02T01:41:11.613Z,10.77
2022-10-02T01:43:43.809Z,8.38
2022-10-02T01:46:31.880Z,9.02
2022-10-02T01:49:44.215Z,7.70
2022-10-02T01:52:57.534Z,11.23
2022-10-02T01:55:47.319Z,9.95
2022-10-02T01:58:17.296Z,8.68
2022-10-02T02:01:11.396Z,10.02
2022-10-02T02:04:19.733Z,7.95
2022-10-02T02:07:14.674Z,10.95
2022-10-02T02:10:07.409Z,7.32
2022-10-02T02:13:01.110Z,8.20
2022-10-02T02:15:46.344Z,8.63
2022-10-02T02:18:29.906Z,9.85
2022-10-02T02:21:04.396Z,7.72
2022-10-02T02:23:35.438Z,13.05
2022-10-02T02:26:12.308Z,9.25
2022-10-02T02:28:48.440Z,9.82
2022-10-02T02:31:21.543Z,10.63
2022-10-02T02:33:56.151Z,10.05
2022-10-02T02:36:27.410Z,8.38
2022-10-02T02:39:03.675Z,8.95
2022-10-02T02:41:40.741Z,9.35
2022-10-02T02:44:20.134Z,10.07
2022-10-02T02:47:06.672Z,11.20
2022-10-02T02:49:49.531Z,8.93
2022-10-02T02:52:24.356Z,13.23
2022-10-02T02:55:00.481Z,10.98
2022-10-02T02:57:58.838Z,12.65
2022-10-02T03:00:26.256Z,8.48
2022-10-02T03:02:54.767Z,9.02
2022-10-02T03:05:27.113Z,8.25
2022-10-02T03:08:01.539Z,10.63
2022-10-02T03:10:40.474Z,8.88
2022-10-02T03:13:43.678Z,9.43
2022-10-02T03:16:33.839Z,9.35
2022-10-02T03:19:25.839Z,12.25
2022-10-02T03:22:20.406Z,8.23
2022-10-02T03:25:11.793Z,10.77
2022-10-02T03:27:57.409Z,9.90
2022-10-02T03:30:25.038Z,8.75
2022-10-02T03:32:53.751Z,11.77
2022-10-02T03:35:23.053Z,9.07
2022-10-02T03:38:03.908Z,10.02
2022-10-02T03:40:34.419Z,9.50
2022-10-02T03:43:01.808Z,9.77
2022-10-02T03:45:49.914Z,10.52
2022-10-02T03:48:17.753Z,8.00
2022-10-02T03:50:44.955Z,9.85
2022-10-02T03:53:19.723Z,10.38
2022-10-02T03:56:09.885Z,10.25
2022-10-02T03:58:41.633Z,10.05
2022-10-02T04:01:17.773Z,10.27
2022-10-02T04:04:10.566Z,10.98
2022-10-02T04:06:48.346Z,10.07
2022-10-02T04:09:32.199Z,10.77
2022-10-02T04:12:11.450Z,8.77
2022-10-02T04:15:20.834Z,10.82
2022-10-02T04:17:54.693Z,9.43
2022-10-02T04:20:46.825Z,9.65
2022-10-02T04:23:39.846Z,11.95
2022-10-02T04:26:25.034Z,13.30
2022-10-02T04:28:59.830Z,8.65
2022-10-02T04:31:28.651Z,9.57
2022-10-02T04:34:02.821Z,10.05
2022-10-02T04:37:01.514Z,9.45
2022-10-02T04:40:17.734Z,10.20
2022-10-02T04:43:22.259Z,8.32
2022-10-02T04:45:59.677Z,9.95
2022-10-02T04:49:05.448Z,12.13
2022-10-02T04:52:01.775Z,8.82
2022-10-02T04:54:46.996Z,10.10
2022-10-02T04:57:57.802Z,9.93
2022-10-02T05:00:26.857Z,9.60
2022-10-02T05:03:18.919Z,10.32
2022-10-02T05:06:30.776Z,8.82
2022-10-02T05:09:33.885Z,9.68
2022-10-02T05:12:36.534Z,9.45
2022-10-02T05:15:40.126Z,9.90
2022-10-02T05:18:38.397Z,9.30
2022-10-02T05:21:46.799Z,9.90
2022-10-02T05:24:59.028Z,9.15
2022-10-02T05:27:50.537Z,13.25
2022-10-02T05:30:19.430Z,9.77
2022-10-02T05:33:19.473Z,9.30
2022-10-02T05:36:20.520Z,10.45
2022-10-02T05:39:02.684Z,10.18
2022-10-02T05:41:44.449Z,10.50
2022-10-02T05:44:25.647Z,8.50
2022-10-02T05:47:15.826Z,8.65
2022-10-02T05:49:54.017Z,7.70
2022-10-02T05:52:27.156Z,10.25
2022-10-02T05:55:19.708Z,9.98
2022-10-02T05:57:52.971Z,9.25
2022-10-02T06:00:29.619Z,8.13
2022-10-02T06:03:21.419Z,9.20
2022-10-02T06:06:01.234Z,10.32
2022-10-02T06:08:44.756Z,11.40
2022-10-02T06:11:30.704Z,10.23
2022-10-02T06:14:13.711Z,9.45
2022-10-02T06:16:49.626Z,11.13
2022-10-02T06:19:24.832Z,15.85
2022-10-02T06:22:01.587Z,12.73
2022-10-02T06:24:48.366Z,12.60
2022-10-02T06:27:44.124Z,13.73
2022-10-02T06:30:15.493Z,13.52
2022-10-02T06:33:16.532Z,12.10
2022-10-02T06:36:07.545Z,18.23
2022-10-02T06:39:15.092Z,10.27
2022-10-02T06:42:27.524Z,15.45
2022-10-02T06:45:26.796Z,13.90
2022-10-02T06:48:30.945Z,16.27
2022-10-02T06:51:10.085Z,13.63
2022-10-02T06:54:11.959Z,11.88
2022-10-02T06:57:05.538Z,9.85
2022-10-02T07:00:04.201Z,12.85
2022-10-02T07:03:04.439Z,12.68
2022-10-02T07:05:43.194Z,13.77
2022-10-02T07:08:38.971Z,13.30
2022-10-02T07:11:52.315Z,12.70
2022-10-02T07:14:39.471Z,13.02
2022-10-02T07:17:23.379Z,21.17
2022-10-02T07:20:32.301Z,17.20
2022-10-02T07:23:39.193Z,13.80
2022-10-02T07:26:27.933Z,10.60
2022-10-02T07:29:22.497Z,9.90
2022-10-02T07:32:31.047Z,12.43
2022-10-02T07:35:47.685Z,9.65
2022-10-02T07:39:05.555Z,7.65
2022-10-02T07:41:59.923Z,7.47
2022-10-02T07:45:14.503Z,7.50
2022-10-02T07:48:06.207Z,9.18
2022-10-02T07:51:04.325Z,8.75
2022-10-02T07:54:03.584Z,7.03
2022-10-02T07:56:32.157Z,9.80
2022-10-02T07:59:07.196Z,6.13
2022-10-02T08:01:37.906Z,9.05
2022-10-02T08:04:34.680Z,7.57
2022-10-02T08:07:05.415Z,9.23
2022-10-02T08:09:37.767Z,6.43
2022-10-02T08:12:16.446Z,6.22
2022-10-02T08:14:46.780Z,7.50
2022-10-02T08:17:37.420Z,7.85
2022-10-02T08:20:30.123Z,9.40
2022-10-02T08:23:21.138Z,5.60
2022-10-02T08:25:59.677Z,4.25
2022-10-02T08:28:36.865Z,8.48
2022-10-02T08:31:11.055Z,14.10
2022-10-02T08:33:39.020Z,9.70
2022-10-02T08:36:33.903Z,5.05
2022-10-02T08:39:39.541Z,7.53
2022-10-02T08:42:30.799Z,5.15
2022-10-02T08:45:34.354Z,9.38
2022-10-02T08:48:55.395Z,7.43
2022-10-02T08:51:41.021Z,9.10
2022-10-02T08:54:45.291Z,7.60
2022-10-02T08:58:24.366Z,5.25
2022-10-02T09:01:38.999Z,9.85
2022-10-02T09:04:45.161Z,5.82
2022-10-02T09:07:39.629Z,5.95
2022-10-02T09:10:45.847Z,3.90
2022-10-02T09:13:54.312Z,8.63
2022-10-02T09:17:01.497Z,6.57
2022-10-02T09:20:19.474Z,7.75
2022-10-02T09:23:10.065Z,6.00
2022-10-02T09:26:19.980Z,2.90
2022-10-02T09:29:38.651Z,5.70
2022-10-02T09:32:51.470Z,9.43
2022-10-02T09:35:36.968Z,9.20
2022-10-02T09:38:35.653Z,10.02
2022-10-02T09:41:50.138Z,5.38
2022-10-02T09:44:35.169Z,5.15
2022-10-02T09:47:49.424Z,6.72
2022-10-02T09:51:05.487Z,4.18
2022-10-02T09:54:18.716Z,5.57
2022-10-02T09:57:35.833Z,4.20
2022-10-02T10:00:18.685Z,4.00
2022-10-02T10:03:24.427Z,6.55
2022-10-02T10:06:14.063Z,4.28
2022-10-02T10:09:19.832Z,4.35
2022-10-02T10:12:12.215Z,7.63
2022-10-02T10:15:19.838Z,5.43
2022-10-02T10:18:15.373Z,7.35
2022-10-02T10:21:24.708Z,5.85
2022-10-02T10:24:14.087Z,3.47
2022-10-02T10:27:37.748Z,4.50
2022-10-02T10:30:39.043Z,7.13
2022-10-02T18:43:49.626Z,50.63
2022-10-02T18:46:44.937Z,41.53
2022-10-02T18:49:41.782Z,33.35
2022-10-02T18:52:53.211Z,26.05
2022-10-02T18:55:53.124Z,31.70
2022-10-02T18:58:52.663Z,32.08
2022-10-02T19:01:55.720Z,31.85
2022-10-02T19:05:19.885Z,29.13
2022-10-02T19:07:52.057Z,23.35
2022-10-02T19:10:40.219Z,24.45
2022-10-02T19:13:17.561Z,21.20
2022-10-02T19:15:47.895Z,21.13
2022-10-02T19:18:36.602Z,20.95
2022-10-02T19:21:15.707Z,21.40
2022-10-02T19:23:59.863Z,19.55
2022-10-02T19:26:33.087Z,16.00
2022-10-02T19:29:06.436Z,19.33
2022-10-02T19:31:39.230Z,18.42
2022-10-02T19:34:17.138Z,12.55
2022-10-02T19:41:43.106Z,10.25
2022-10-02T19:44:20.666Z,9.10
2022-10-02T19:46:53.324Z,10.15
2022-10-02T19:49:28.494Z,12.32
2022-10-02T19:51:56.893Z,13.40
2022-10-02T19:54:35.909Z,12.55
2022-10-02T19:57:15.268Z,10.70
2022-10-02T19:59:47.816Z,10.45
2022-10-02T20:02:32.806Z,18.48
2022-10-02T20:05:06.313Z,16.38
2022-10-02T20:07:37.791Z,16.45
2022-10-02T20:10:59.514Z,17.20
2022-10-02T20:13:37.309Z,20.77
2022-10-02T20:16:44.814Z,22.23
2022-10-02T20:19:20.271Z,21.95
2022-10-02T20:21:55.483Z,18.92
2022-10-02T20:24:49.103Z,28.95
2022-10-02T20:27:26.445Z,24.60
2022-10-02T20:30:00.900Z,21.55
2022-10-02T20:32:38.839Z,18.38
2022-10-02T20:35:34.900Z,21.67
2022-10-02T20:38:13.837Z,13.52
2022-10-02T20:40:46.737Z,16.83
2022-10-02T20:43:32.623Z,15.85
2022-10-02T20:46:18.145Z,18.77
2022-10-02T20:49:30.632Z,14.43
2022-10-02T20:52:40.412Z,21.02
2022-10-02T20:55:44.777Z,15.23
2022-10-02T20:58:55.449Z,16.85
2022-10-02T21:01:40.602Z,11.02
2022-10-02T21:04:59.097Z,9.80
2022-10-02T21:07:47.163Z,11.18
2022-10-02T21:10:40.855Z,10.38
2022-10-02T21:14:04.318Z,13.38
2022-10-02T21:16:58.780Z,9.63
2022-10-02T21:20:01.133Z,7.97
2022-10-02T21:23:10.090Z,10.57
2022-10-02T21:26:27.041Z,8.40
2022-10-02T21:29:28.328Z,7.15
2022-10-02T21:32:13.103Z,10.52
2022-10-02T21:35:30.002Z,8.88
2022-10-02T21:38:42.933Z,6.22
2022-10-02T21:41:48.662Z,7.82
2022-10-02T21:45:06.406Z,4.57
2022-10-02T21:48:49.426Z,6.43
2022-10-02T21:51:59.412Z,4.80
2022-10-02T21:54:52.164Z,7.05
2022-10-02T21:57:44.811Z,4.55
2022-10-02T22:00:24.296Z,5.47
2022-10-02T22:03:51.011Z,8.52
2022-10-02T22:06:42.317Z,5.53
2022-10-02T22:09:28.536Z,4.90
2022-10-02T22:12:34.611Z,5.38
2022-10-02T22:15:20.481Z,3.22
2022-10-02T22:18:10.299Z,5.15
2022-10-02T22:20:56.186Z,6.35
2022-10-02T22:23:58.089Z,5.32
2022-10-02T22:26:37.654Z,4.35
2022-10-02T22:29:21.018Z,4.85
2022-10-02T22:32:42.707Z,8.43
2022-10-02T22:35:34.438Z,6.43
2022-10-02T22:38:33.148Z,6.20
2022-10-02T22:41:26.682Z,4.53
2022-10-02T22:44:30.628Z,5.28
2022-10-02T22:47:15.173Z,6.55
2022-10-02T22:49:57.171Z,5.60
2022-10-02T22:52:47.420Z,4.40
2022-10-02T22:55:24.332Z,3.80
2022-10-02T22:58:14.659Z,4.70
2022-10-02T23:01:16.166Z,5.15
2022-10-02T23:04:02.653Z,7.07
2022-10-02T23:06:34.469Z,5.18
2022-10-02T23:09:40.372Z,3.60
2022-10-02T23:13:03.342Z,3.03
2022-10-02T23:15:42.834Z,3.88
2022-10-02T23:18:22.002Z,5.07
2022-10-02T23:21:02.703Z,4.07
2022-10-02T23:23:46.346Z,4.53
2022-10-02T23:26:26.748Z,3.80
2022-10-02T23:29:15.138Z,5.45
2022-10-02T23:31:54.078Z,7.07
2022-10-02T23:34:49.107Z,4.43
2022-10-02T23:37:53.782Z,3.85
2022-10-02T23:40:47.850Z,6.80
2022-10-02T23:43:25.072Z,6.63
2022-10-02T23:46:04.890Z,5.35
2022-10-02T23:48:32.555Z,5.13
2022-10-02T23:51:16.449Z,7.72
2022-10-02T23:54:06.581Z,5.90
2022-10-02T23:57:04.004Z,8.98
2022-10-02T23:59:59.893Z,5.10
